الصفحة الرئيسية
METAR-TAF:

METAR-TAF

مطار :

مطار زامبوانجا الدولي

Zamboanga, الفلبين

دائرة عرض: 06-54N, خط طول: 122-04E, ارتفاع: 5 متر

مراقبة الطقس الحالي

تاريخ ووقت الإصدار 58 دقيقة قبل الساعة 08:00UTC
ريح 4 عقدةمن اتجاهات متغيرة
درجة الحرارة 31°درجة مئوية
الرطوبة 71%
ضغط 1007 hPa
الرؤية 10 كم أو أكثر
غيوم قليلة على ارتفاع 1700 قدم
غيوم مفككة على ارتفاع 9000 قدم

METAR: RPMZ 220800Z VRB04KT 9999 FEW017 BKN090 31/25 Q1007 RMK A2974

زمن: 16:58 (08:58 UTC)

توقعات

تاريخ ووقت الإصدار 3ساعات و 58 دقيقة قبل الساعة 05:00UTC
التوقعات صالحة من22 الساعة 06 UTC إلى 23 الساعة 06 UTC
ريح 6 عقدة من الغرب/الجنوب الغربي
الرؤية 10 كم أو أكثر
غيوم قليلة على ارتفاع 1700 قدم
غيوم متفرقة على ارتفاع 9000 قدم
غيوم مفككة على ارتفاع 30000 قدم
مؤقت
من 22 الساعة 06 UTC إلى 22 الساعة 12 UTC
ريح 10 عقدة من الجنوب الغربي
غيوم قليلة على ارتفاع 1600 قدم, مزنة ركامية.
غيوم متفرقة على ارتفاع 1700 قدم
غيوم مفككة على ارتفاع 9000 قدم
عاصفة رعدية, مطر خفيف

TAF: RPMZ 220500Z 2206/2306 25006KT 9999 FEW017 SCT090 BKN300 TEMPO 2206/2212 22010KT -TSRA FEW016CB SCT017 BKN090

أرصاد الطقس والتوقعات من أكثر من 4000 مطار (تقارير الطقس للمطار METAR والتنبؤ بالطقس بالمطارTAF).

المحطات المتاحة هي النقط الصفراء والحمراء على الخريطة.

حرك المؤشر فوق النقطة لمعرفة اسم المحطة.

ثم انقر لمعرفة أرصاد وتوقعات الطقس.

لتغيير الخارطة: اضغط على الأزرار الخضراء مع رمز الصليب الأسود للتكبير. على الزر الأخضر مع شرطة للتصغير، أو على الأسهم الخضراء للخرائط المجاورة.


METAR-TAF: